sensor_id;sensor_type;location;lat;lon;timestamp;pressure;altitude;pressure_sealevel;temperature
22828;BMP180;11580;52.562;13.418;2023-10-08T00:02:10;100893.00;;;15.90
22828;BMP180;11580;52.562;13.418;2023-10-08T00:04:41;100896.00;;;15.90
22828;BMP180;11580;52.562;13.418;2023-10-08T00:07:10;100907.00;;;15.80
22828;BMP180;11580;52.562;13.418;2023-10-08T00:09:37;100887.00;;;15.80
22828;BMP180;11580;52.562;13.418;2023-10-08T00:12:05;100758.00;;;15.80
22828;BMP180;11580;52.562;13.418;2023-10-08T00:14:33;100888.00;;;15.80
22828;BMP180;11580;52.562;13.418;2023-10-08T00:17:11;100887.00;;;15.80
22828;BMP180;11580;52.562;13.418;2023-10-08T00:19:38;100885.00;;;15.80
22828;BMP180;11580;52.562;13.418;2023-10-08T00:22:07;100890.00;;;15.80
22828;BMP180;11580;52.562;13.418;2023-10-08T00:24:35;100901.00;;;15.70
22828;BMP180;11580;52.562;13.418;2023-10-08T00:27:07;100900.00;;;15.70
22828;BMP180;11580;52.562;13.418;2023-10-08T00:29:35;100907.00;;;15.70
22828;BMP180;11580;52.562;13.418;2023-10-08T00:32:06;100905.00;;;15.70
22828;BMP180;11580;52.562;13.418;2023-10-08T00:34:39;100900.00;;;15.70
22828;BMP180;11580;52.562;13.418;2023-10-08T00:37:10;100908.00;;;15.70
22828;BMP180;11580;52.562;13.418;2023-10-08T00:39:41;100910.00;;;15.70
22828;BMP180;11580;52.562;13.418;2023-10-08T00:42:09;100913.00;;;15.70
22828;BMP180;11580;52.562;13.418;2023-10-08T00:44:38;100917.00;;;15.70
22828;BMP180;11580;52.562;13.418;2023-10-08T00:47:16;100910.00;;;15.70
22828;BMP180;11580;52.562;13.418;2023-10-08T00:49:44;100924.00;;;15.70
22828;BMP180;11580;52.562;13.418;2023-10-08T00:52:23;100930.00;;;15.60
22828;BMP180;11580;52.562;13.418;2023-10-08T00:54:53;100924.00;;;15.70
22828;BMP180;11580;52.562;13.418;2023-10-08T00:57:31;100927.00;;;15.60
22828;BMP180;11580;52.562;13.418;2023-10-08T01:00:03;100933.00;;;15.60
22828;BMP180;11580;52.562;13.418;2023-10-08T01:02:38;100935.00;;;15.60
22828;BMP180;11580;52.562;13.418;2023-10-08T01:05:12;100937.00;;;15.60
22828;BMP180;11580;52.562;13.418;2023-10-08T01:07:46;100914.00;;;15.60
22828;BMP180;11580;52.562;13.418;2023-10-08T01:10:16;100909.00;;;15.60
22828;BMP180;11580;52.562;13.418;2023-10-08T01:12:47;100918.00;;;15.60
22828;BMP180;11580;52.562;13.418;2023-10-08T01:15:30;100926.00;;;15.60
22828;BMP180;11580;52.562;13.418;2023-10-08T01:18:02;100941.00;;;15.60
22828;BMP180;11580;52.562;13.418;2023-10-08T01:20:31;100937.00;;;15.60
22828;BMP180;11580;52.562;13.418;2023-10-08T01:23:05;100945.00;;;15.60
22828;BMP180;11580;52.562;13.418;2023-10-08T01:25:37;100933.00;;;15.60
22828;BMP180;11580;52.562;13.418;2023-10-08T01:28:06;100938.00;;;15.60
22828;BMP180;11580;52.562;13.418;2023-10-08T01:30:42;100935.00;;;15.60
22828;BMP180;11580;52.562;13.418;2023-10-08T01:33:12;100941.00;;;15.60
22828;BMP180;11580;52.562;13.418;2023-10-08T01:35:42;100953.00;;;15.60
22828;BMP180;11580;52.562;13.418;2023-10-08T01:38:11;100964.00;;;15.60
22828;BMP180;11580;52.562;13.418;2023-10-08T01:40:41;100952.00;;;15.50
22828;BMP180;11580;52.562;13.418;2023-10-08T01:43:08;100972.00;;;15.60
22828;BMP180;11580;52.562;13.418;2023-10-08T01:45:37;100958.00;;;15.60
22828;BMP180;11580;52.562;13.418;2023-10-08T01:48:07;100962.00;;;15.60
22828;BMP180;11580;52.562;13.418;2023-10-08T01:50:36;100983.00;;;15.60
22828;BMP180;11580;52.562;13.418;2023-10-08T01:53:04;100974.00;;;15.60
22828;BMP180;11580;52.562;13.418;2023-10-08T01:55:37;100984.00;;;15.60
22828;BMP180;11580;52.562;13.418;2023-10-08T01:58:16;100989.00;;;15.50
22828;BMP180;11580;52.562;13.418;2023-10-08T02:00:45;101002.00;;;15.50
22828;BMP180;11580;52.562;13.418;2023-10-08T02:03:14;100988.00;;;15.50
22828;BMP180;11580;52.562;13.418;2023-10-08T02:05:42;100986.00;;;15.50
22828;BMP180;11580;52.562;13.418;2023-10-08T02:08:10;100993.00;;;15.50
22828;BMP180;11580;52.562;13.418;2023-10-08T02:10:42;100994.00;;;15.50
22828;BMP180;11580;52.562;13.418;2023-10-08T02:13:13;100986.00;;;15.50
22828;BMP180;11580;52.562;13.418;2023-10-08T02:15:44;100994.00;;;15.50
22828;BMP180;11580;52.562;13.418;2023-10-08T02:18:13;100994.00;;;15.50
22828;BMP180;11580;52.562;13.418;2023-10-08T02:20:40;101026.00;;;15.40
22828;BMP180;11580;52.562;13.418;2023-10-08T02:23:09;101027.00;;;15.50
22828;BMP180;11580;52.562;13.418;2023-10-08T02:25:40;101029.00;;;15.50
22828;BMP180;11580;52.562;13.418;2023-10-08T02:28:07;101035.00;;;15.50
22828;BMP180;11580;52.562;13.418;2023-10-08T02:30:36;101050.00;;;15.50
22828;BMP180;11580;52.562;13.418;2023-10-08T02:33:05;101070.00;;;15.50
22828;BMP180;11580;52.562;13.418;2023-10-08T02:35:40;101074.00;;;15.50
22828;BMP180;11580;52.562;13.418;2023-10-08T02:38:10;101052.00;;;15.50
22828;BMP180;11580;52.562;13.418;2023-10-08T02:40:40;101055.00;;;15.50
22828;BMP180;11580;52.562;13.418;2023-10-08T02:43:10;101050.00;;;15.50
22828;BMP180;11580;52.562;13.418;2023-10-08T02:45:40;101058.00;;;15.50
22828;BMP180;11580;52.562;13.418;2023-10-08T02:48:07;101049.00;;;15.50
22828;BMP180;11580;52.562;13.418;2023-10-08T02:50:38;101045.00;;;15.50
22828;BMP180;11580;52.562;13.418;2023-10-08T02:53:07;101054.00;;;15.50
22828;BMP180;11580;52.562;13.418;2023-10-08T02:55:37;101062.00;;;15.50
22828;BMP180;11580;52.562;13.418;2023-10-08T02:58:11;101049.00;;;15.50
22828;BMP180;11580;52.562;13.418;2023-10-08T03:00:41;101055.00;;;15.50
22828;BMP180;11580;52.562;13.418;2023-10-08T03:03:08;101052.00;;;15.50
22828;BMP180;11580;52.562;13.418;2023-10-08T03:05:44;101038.00;;;15.50
22828;BMP180;11580;52.562;13.418;2023-10-08T03:08:13;101045.00;;;15.50
22828;BMP180;11580;52.562;13.418;2023-10-08T03:10:45;101047.00;;;15.50
22828;BMP180;11580;52.562;13.418;2023-10-08T03:13:15;101062.00;;;15.50
22828;BMP180;11580;52.562;13.418;2023-10-08T03:15:45;101054.00;;;15.50
22828;BMP180;11580;52.562;13.418;2023-10-08T03:18:34;101059.00;;;15.50
22828;BMP180;11580;52.562;13.418;2023-10-08T03:21:03;101076.00;;;15.50
22828;BMP180;11580;52.562;13.418;2023-10-08T03:23:32;101081.00;;;15.50
22828;BMP180;11580;52.562;13.418;2023-10-08T03:26:09;101068.00;;;15.50
22828;BMP180;11580;52.562;13.418;2023-10-08T03:28:39;101068.00;;;15.50
22828;BMP180;11580;52.562;13.418;2023-10-08T03:31:07;101076.00;;;15.40
22828;BMP180;11580;52.562;13.418;2023-10-08T03:33:43;101090.00;;;15.40
22828;BMP180;11580;52.562;13.418;2023-10-08T03:36:15;101084.00;;;15.40
22828;BMP180;11580;52.562;13.418;2023-10-08T03:38:47;101095.00;;;15.30
22828;BMP180;11580;52.562;13.418;2023-10-08T03:41:22;101088.00;;;15.30
22828;BMP180;11580;52.562;13.418;2023-10-08T03:43:55;101108.00;;;15.30
22828;BMP180;11580;52.562;13.418;2023-10-08T03:46:28;101111.00;;;15.30
22828;BMP180;11580;52.562;13.418;2023-10-08T03:48:56;101105.00;;;15.20
22828;BMP180;11580;52.562;13.418;2023-10-08T03:51:30;101123.00;;;15.20
22828;BMP180;11580;52.562;13.418;2023-10-08T03:54:06;101131.00;;;15.20
22828;BMP180;11580;52.562;13.418;2023-10-08T03:56:46;101155.00;;;15.20
22828;BMP180;11580;52.562;13.418;2023-10-08T03:59:15;101148.00;;;15.20
22828;BMP180;11580;52.562;13.418;2023-10-08T04:01:56;101150.00;;;15.20
22828;BMP180;11580;52.562;13.418;2023-10-08T04:04:27;101153.00;;;15.20
22828;BMP180;11580;52.562;13.418;2023-10-08T04:07:16;101145.00;;;15.20
22828;BMP180;11580;52.562;13.418;2023-10-08T04:09:55;101156.00;;;15.10
22828;BMP180;11580;52.562;13.418;2023-10-08T04:12:43;101158.00;;;15.10
22828;BMP180;11580;52.562;13.418;2023-10-08T04:15:16;101143.00;;;15.10
22828;BMP180;11580;52.562;13.418;2023-10-08T04:17:44;101159.00;;;15.00
22828;BMP180;11580;52.562;13.418;2023-10-08T04:20:12;101168.00;;;15.00
22828;BMP180;11580;52.562;13.418;2023-10-08T04:22:57;101184.00;;;14.90
22828;BMP180;11580;52.562;13.418;2023-10-08T04:25:25;101192.00;;;14.90
22828;BMP180;11580;52.562;13.418;2023-10-08T04:27:54;101173.00;;;14.90
22828;BMP180;11580;52.562;13.418;2023-10-08T04:30:26;101185.00;;;14.90
22828;BMP180;11580;52.562;13.418;2023-10-08T04:32:59;101201.00;;;14.90
22828;BMP180;11580;52.562;13.418;2023-10-08T04:35:33;101214.00;;;14.90
22828;BMP180;11580;52.562;13.418;2023-10-08T04:38:03;101217.00;;;14.90
22828;BMP180;11580;52.562;13.418;2023-10-08T04:40:34;101215.00;;;14.80
22828;BMP180;11580;52.562;13.418;2023-10-08T04:43:08;101206.00;;;14.80
22828;BMP180;11580;52.562;13.418;2023-10-08T04:45:38;101208.00;;;14.80
22828;BMP180;11580;52.562;13.418;2023-10-08T04:48:06;101203.00;;;14.70
22828;BMP180;11580;52.562;13.418;2023-10-08T04:50:36;101215.00;;;14.70
22828;BMP180;11580;52.562;13.418;2023-10-08T04:53:04;101199.00;;;14.60
22828;BMP180;11580;52.562;13.418;2023-10-08T04:55:34;101205.00;;;14.60
22828;BMP180;11580;52.562;13.418;2023-10-08T04:58:07;101210.00;;;14.50
22828;BMP180;11580;52.562;13.418;2023-10-08T05:00:47;101208.00;;;14.50
22828;BMP180;11580;52.562;13.418;2023-10-08T05:03:20;101200.00;;;14.40
22828;BMP180;11580;52.562;13.418;2023-10-08T05:05:49;101242.00;;;14.40
22828;BMP180;11580;52.562;13.418;2023-10-08T05:08:34;101245.00;;;14.30
22828;BMP180;11580;52.562;13.418;2023-10-08T05:11:13;101251.00;;;14.30
22828;BMP180;11580;52.562;13.418;2023-10-08T05:13:50;101252.00;;;14.20
22828;BMP180;11580;52.562;13.418;2023-10-08T05:16:33;101256.00;;;14.20
22828;BMP180;11580;52.562;13.418;2023-10-08T05:19:09;101248.00;;;14.10
22828;BMP180;11580;52.562;13.418;2023-10-08T05:21:54;101252.00;;;14.10
22828;BMP180;11580;52.562;13.418;2023-10-08T05:24:44;101276.00;;;14.10
22828;BMP180;11580;52.562;13.418;2023-10-08T05:27:31;101275.00;;;14.00
22828;BMP180;11580;52.562;13.418;2023-10-08T05:30:25;101279.00;;;14.00
22828;BMP180;11580;52.562;13.418;2023-10-08T05:32:56;101283.00;;;14.00
22828;BMP180;11580;52.562;13.418;2023-10-08T05:35:40;101289.00;;;14.00
22828;BMP180;11580;52.562;13.418;2023-10-08T05:38:18;101280.00;;;14.00
22828;BMP180;11580;52.562;13.418;2023-10-08T05:41:05;101292.00;;;14.00
22828;BMP180;11580;52.562;13.418;2023-10-08T05:43:54;101313.00;;;14.00
22828;BMP180;11580;52.562;13.418;2023-10-08T05:46:38;101297.00;;;13.90
22828;BMP180;11580;52.562;13.418;2023-10-08T05:49:51;101319.00;;;14.00
22828;BMP180;11580;52.562;13.418;2023-10-08T05:52:40;101313.00;;;14.00
22828;BMP180;11580;52.562;13.418;2023-10-08T05:55:29;101307.00;;;14.00
22828;BMP180;11580;52.562;13.418;2023-10-08T05:58:02;101319.00;;;14.10
22828;BMP180;11580;52.562;13.418;2023-10-08T06:00:40;101340.00;;;14.10
22828;BMP180;11580;52.562;13.418;2023-10-08T06:03:30;101332.00;;;14.10
22828;BMP180;11580;52.562;13.418;2023-10-08T06:06:06;101327.00;;;14.20
22828;BMP180;11580;52.562;13.418;2023-10-08T06:09:04;101350.00;;;14.20
22828;BMP180;11580;52.562;13.418;2023-10-08T06:11:48;101359.00;;;14.20
22828;BMP180;11580;52.562;13.418;2023-10-08T06:14:35;101374.00;;;14.20
22828;BMP180;11580;52.562;13.418;2023-10-08T06:17:20;101374.00;;;14.20
22828;BMP180;11580;52.562;13.418;2023-10-08T06:20:16;101400.00;;;14.20
22828;BMP180;11580;52.562;13.418;2023-10-08T06:22:52;101401.00;;;14.20
22828;BMP180;11580;52.562;13.418;2023-10-08T06:25:26;101411.00;;;14.30
22828;BMP180;11580;52.562;13.418;2023-10-08T06:27:53;101402.00;;;14.40
22828;BMP180;11580;52.562;13.418;2023-10-08T06:30:24;101412.00;;;14.50
22828;BMP180;11580;52.562;13.418;2023-10-08T06:32:56;101414.00;;;14.60
22828;BMP180;11580;52.562;13.418;2023-10-08T06:35:23;101419.00;;;14.70
22828;BMP180;11580;52.562;13.418;2023-10-08T06:37:55;101425.00;;;14.80
22828;BMP180;11580;52.562;13.418;2023-10-08T06:40:25;101430.00;;;14.80
22828;BMP180;11580;52.562;13.418;2023-10-08T06:43:08;101427.00;;;14.80
22828;BMP180;11580;52.562;13.418;2023-10-08T06:45:42;101430.00;;;14.80
22828;BMP180;11580;52.562;13.418;2023-10-08T06:48:09;101434.00;;;14.80
22828;BMP180;11580;52.562;13.418;2023-10-08T06:50:44;101448.00;;;14.80
22828;BMP180;11580;52.562;13.418;2023-10-08T06:53:13;101468.00;;;14.80
22828;BMP180;11580;52.562;13.418;2023-10-08T06:55:41;101464.00;;;14.80
22828;BMP180;11580;52.562;13.418;2023-10-08T06:58:09;101454.00;;;14.80
22828;BMP180;11580;52.562;13.418;2023-10-08T07:00:38;101464.00;;;14.80
22828;BMP180;11580;52.562;13.418;2023-10-08T07:03:06;101453.00;;;14.80
22828;BMP180;11580;52.562;13.418;2023-10-08T07:05:41;101470.00;;;14.80
22828;BMP180;11580;52.562;13.418;2023-10-08T07:08:12;101470.00;;;14.80
22828;BMP180;11580;52.562;13.418;2023-10-08T07:10:41;101469.00;;;14.80
22828;BMP180;11580;52.562;13.418;2023-10-08T07:13:09;101467.00;;;14.80
22828;BMP180;11580;52.562;13.418;2023-10-08T07:15:36;101482.00;;;14.80
22828;BMP180;11580;52.562;13.418;2023-10-08T07:18:06;101494.00;;;14.80
22828;BMP180;11580;52.562;13.418;2023-10-08T07:20:40;101490.00;;;14.80
22828;BMP180;11580;52.562;13.418;2023-10-08T07:23:08;101495.00;;;14.80
22828;BMP180;11580;52.562;13.418;2023-10-08T07:25:52;101498.00;;;14.80
22828;BMP180;11580;52.562;13.418;2023-10-08T07:28:23;101505.00;;;14.80
22828;BMP180;11580;52.562;13.418;2023-10-08T07:30:52;101508.00;;;14.80
22828;BMP180;11580;52.562;13.418;2023-10-08T07:33:19;101513.00;;;14.90
22828;BMP180;11580;52.562;13.418;2023-10-08T07:35:51;101515.00;;;14.90
22828;BMP180;11580;52.562;13.418;2023-10-08T07:38:26;101514.00;;;14.90
22828;BMP180;11580;52.562;13.418;2023-10-08T07:40:57;101519.00;;;14.90
22828;BMP180;11580;52.562;13.418;2023-10-08T07:43:26;101524.00;;;15.00
22828;BMP180;11580;52.562;13.418;2023-10-08T07:45:58;101539.00;;;15.00
22828;BMP180;11580;52.562;13.418;2023-10-08T07:48:26;101534.00;;;15.00
22828;BMP180;11580;52.562;13.418;2023-10-08T07:50:56;101538.00;;;15.00
22828;BMP180;11580;52.562;13.418;2023-10-08T07:53:24;101537.00;;;15.00
22828;BMP180;11580;52.562;13.418;2023-10-08T07:56:05;101534.00;;;15.10
22828;BMP180;11580;52.562;13.418;2023-10-08T07:58:34;101538.00;;;15.10
22828;BMP180;11580;52.562;13.418;2023-10-08T08:01:04;101534.00;;;15.10
22828;BMP180;11580;52.562;13.418;2023-10-08T08:03:33;101545.00;;;15.20
22828;BMP180;11580;52.562;13.418;2023-10-08T08:06:03;101542.00;;;15.20
22828;BMP180;11580;52.562;13.418;2023-10-08T08:08:33;101543.00;;;15.20
22828;BMP180;11580;52.562;13.418;2023-10-08T08:11:03;101550.00;;;15.30
22828;BMP180;11580;52.562;13.418;2023-10-08T08:13:33;101554.00;;;15.30
22828;BMP180;11580;52.562;13.418;2023-10-08T08:16:01;101557.00;;;15.40
22828;BMP180;11580;52.562;13.418;2023-10-08T08:18:42;101556.00;;;15.40
22828;BMP180;11580;52.562;13.418;2023-10-08T08:21:10;101568.00;;;15.40
22828;BMP180;11580;52.562;13.418;2023-10-08T08:23:41;101558.00;;;15.50
22828;BMP180;11580;52.562;13.418;2023-10-08T08:26:16;101569.00;;;15.50
22828;BMP180;11580;52.562;13.418;2023-10-08T08:28:54;101573.00;;;15.50
22828;BMP180;11580;52.562;13.418;2023-10-08T08:31:23;101564.00;;;15.50
22828;BMP180;11580;52.562;13.418;2023-10-08T08:33:51;101583.00;;;15.60
22828;BMP180;11580;52.562;13.418;2023-10-08T08:36:23;101584.00;;;15.60
22828;BMP180;11580;52.562;13.418;2023-10-08T08:38:51;101582.00;;;15.70
22828;BMP180;11580;52.562;13.418;2023-10-08T08:41:20;101584.00;;;15.70
22828;BMP180;11580;52.562;13.418;2023-10-08T08:43:52;101594.00;;;15.70
22828;BMP180;11580;52.562;13.418;2023-10-08T08:46:33;101598.00;;;15.70
22828;BMP180;11580;52.562;13.418;2023-10-08T08:49:04;101606.00;;;15.70
22828;BMP180;11580;52.562;13.418;2023-10-08T08:51:31;101606.00;;;15.80
22828;BMP180;11580;52.562;13.418;2023-10-08T08:53:59;101605.00;;;15.90
22828;BMP180;11580;52.562;13.418;2023-10-08T08:56:34;101617.00;;;15.90
22828;BMP180;11580;52.562;13.418;2023-10-08T08:59:04;101620.00;;;16.00
22828;BMP180;11580;52.562;13.418;2023-10-08T09:01:32;101614.00;;;16.00
22828;BMP180;11580;52.562;13.418;2023-10-08T09:04:00;101616.00;;;16.10
22828;BMP180;11580;52.562;13.418;2023-10-08T09:06:31;101618.00;;;16.10
22828;BMP180;11580;52.562;13.418;2023-10-08T09:08:59;101616.00;;;16.10
22828;BMP180;11580;52.562;13.418;2023-10-08T09:11:42;101626.00;;;16.20
22828;BMP180;11580;52.562;13.418;2023-10-08T09:14:09;101620.00;;;16.20
22828;BMP180;11580;52.562;13.418;2023-10-08T09:16:38;101609.00;;;16.30
22828;BMP180;11580;52.562;13.418;2023-10-08T09:19:06;101636.00;;;16.30
22828;BMP180;11580;52.562;13.418;2023-10-08T09:21:37;101629.00;;;16.30
22828;BMP180;11580;52.562;13.418;2023-10-08T09:24:07;101646.00;;;16.40
22828;BMP180;11580;52.562;13.418;2023-10-08T09:26:37;101642.00;;;16.40
22828;BMP180;11580;52.562;13.418;2023-10-08T09:29:07;101634.00;;;16.40
22828;BMP180;11580;52.562;13.418;2023-10-08T09:31:37;101648.00;;;16.50
22828;BMP180;11580;52.562;13.418;2023-10-08T09:34:05;101637.00;;;16.50
22828;BMP180;11580;52.562;13.418;2023-10-08T09:36:32;101637.00;;;16.50
22828;BMP180;11580;52.562;13.418;2023-10-08T09:39:02;101639.00;;;16.60
22828;BMP180;11580;52.562;13.418;2023-10-08T09:41:33;101646.00;;;16.60
22828;BMP180;11580;52.562;13.418;2023-10-08T09:44:03;101640.00;;;16.60
22828;BMP180;11580;52.562;13.418;2023-10-08T09:46:40;101645.00;;;16.70
22828;BMP180;11580;52.562;13.418;2023-10-08T09:49:12;101645.00;;;16.70
22828;BMP180;11580;52.562;13.418;2023-10-08T09:51:40;101645.00;;;16.70
22828;BMP180;11580;52.562;13.418;2023-10-08T09:54:15;101652.00;;;16.70
22828;BMP180;11580;52.562;13.418;2023-10-08T09:56:46;101662.00;;;16.70
22828;BMP180;11580;52.562;13.418;2023-10-08T09:59:15;101659.00;;;16.70
22828;BMP180;11580;52.562;13.418;2023-10-08T10:01:45;101656.00;;;16.80
22828;BMP180;11580;52.562;13.418;2023-10-08T10:04:22;101658.00;;;16.80
22828;BMP180;11580;52.562;13.418;2023-10-08T10:06:51;101663.00;;;16.90
22828;BMP180;11580;52.562;13.418;2023-10-08T10:09:22;101666.00;;;16.90
22828;BMP180;11580;52.562;13.418;2023-10-08T10:11:51;101663.00;;;17.00
22828;BMP180;11580;52.562;13.418;2023-10-08T10:14:21;101662.00;;;17.00
22828;BMP180;11580;52.562;13.418;2023-10-08T10:17:09;101669.00;;;17.00
22828;BMP180;11580;52.562;13.418;2023-10-08T10:19:37;101667.00;;;17.00
22828;BMP180;11580;52.562;13.418;2023-10-08T10:22:14;101665.00;;;17.00
22828;BMP180;11580;52.562;13.418;2023-10-08T10:24:42;101668.00;;;17.10
22828;BMP180;11580;52.562;13.418;2023-10-08T10:27:16;101671.00;;;17.10
22828;BMP180;11580;52.562;13.418;2023-10-08T10:29:43;101667.00;;;17.10
22828;BMP180;11580;52.562;13.418;2023-10-08T10:32:15;101666.00;;;17.20
22828;BMP180;11580;52.562;13.418;2023-10-08T10:34:44;101681.00;;;17.30
22828;BMP180;11580;52.562;13.418;2023-10-08T10:37:13;101682.00;;;17.30
22828;BMP180;11580;52.562;13.418;2023-10-08T10:39:56;101687.00;;;17.30
22828;BMP180;11580;52.562;13.418;2023-10-08T10:42:25;101693.00;;;17.20
22828;BMP180;11580;52.562;13.418;2023-10-08T10:44:55;101684.00;;;17.30
22828;BMP180;11580;52.562;13.418;2023-10-08T10:47:25;101682.00;;;17.30
22828;BMP180;11580;52.562;13.418;2023-10-08T10:50:08;101692.00;;;17.30
22828;BMP180;11580;52.562;13.418;2023-10-08T10:53:02;101690.00;;;17.30
22828;BMP180;11580;52.562;13.418;2023-10-08T10:55:37;101689.00;;;17.30
22828;BMP180;11580;52.562;13.418;2023-10-08T10:58:05;101693.00;;;17.40
22828;BMP180;11580;52.562;13.418;2023-10-08T11:00:41;101693.00;;;17.40
22828;BMP180;11580;52.562;13.418;2023-10-08T11:03:36;101700.00;;;17.50
22828;BMP180;11580;52.562;13.418;2023-10-08T11:06:03;101690.00;;;17.50
22828;BMP180;11580;52.562;13.418;2023-10-08T11:08:41;101685.00;;;17.50
22828;BMP180;11580;52.562;13.418;2023-10-08T11:11:12;101682.00;;;17.50
22828;BMP180;11580;52.562;13.418;2023-10-08T11:13:43;101677.00;;;17.50
22828;BMP180;11580;52.562;13.418;2023-10-08T11:16:17;101681.00;;;17.60
22828;BMP180;11580;52.562;13.418;2023-10-08T11:18:50;101677.00;;;17.60
22828;BMP180;11580;52.562;13.418;2023-10-08T11:21:23;101682.00;;;17.50
22828;BMP180;11580;52.562;13.418;2023-10-08T11:23:52;101681.00;;;17.60
22828;BMP180;11580;52.562;13.418;2023-10-08T11:26:23;101681.00;;;17.70
22828;BMP180;11580;52.562;13.418;2023-10-08T11:28:59;101681.00;;;17.70
22828;BMP180;11580;52.562;13.418;2023-10-08T11:31:29;101685.00;;;17.80
22828;BMP180;11580;52.562;13.418;2023-10-08T11:34:03;101683.00;;;17.90
22828;BMP180;11580;52.562;13.418;2023-10-08T11:36:37;101691.00;;;18.00
22828;BMP180;11580;52.562;13.418;2023-10-08T11:39:15;101653.00;;;18.00
22828;BMP180;11580;52.562;13.418;2023-10-08T11:41:56;101688.00;;;18.00
22828;BMP180;11580;52.562;13.418;2023-10-08T11:44:23;101693.00;;;18.00
22828;BMP180;11580;52.562;13.418;2023-10-08T11:46:56;101692.00;;;18.00
22828;BMP180;11580;52.562;13.418;2023-10-08T11:49:32;101685.00;;;18.10
22828;BMP180;11580;52.562;13.418;2023-10-08T11:52:02;101676.00;;;18.10
22828;BMP180;11580;52.562;13.418;2023-10-08T11:54:30;101681.00;;;18.20
22828;BMP180;11580;52.562;13.418;2023-10-08T11:57:00;101677.00;;;18.20
22828;BMP180;11580;52.562;13.418;2023-10-08T11:59:28;101682.00;;;18.30
22828;BMP180;11580;52.562;13.418;2023-10-08T12:01:58;101689.00;;;18.40
22828;BMP180;11580;52.562;13.418;2023-10-08T12:04:25;101693.00;;;18.50
22828;BMP180;11580;52.562;13.418;2023-10-08T12:06:56;101684.00;;;18.60
22828;BMP180;11580;52.562;13.418;2023-10-08T12:09:27;101688.00;;;18.80
22828;BMP180;11580;52.562;13.418;2023-10-08T12:11:55;101699.00;;;19.00
22828;BMP180;11580;52.562;13.418;2023-10-08T12:14:23;101701.00;;;19.20
22828;BMP180;11580;52.562;13.418;2023-10-08T12:16:56;101705.00;;;19.30
22828;BMP180;11580;52.562;13.418;2023-10-08T12:19:25;101700.00;;;19.50
22828;BMP180;11580;52.562;13.418;2023-10-08T12:21:53;101706.00;;;19.60
22828;BMP180;11580;52.562;13.418;2023-10-08T12:24:21;101689.00;;;19.70
22828;BMP180;11580;52.562;13.418;2023-10-08T12:26:48;101679.00;;;19.70
22828;BMP180;11580;52.562;13.418;2023-10-08T12:29:15;101678.00;;;19.80
22828;BMP180;11580;52.562;13.418;2023-10-08T12:31:44;101679.00;;;19.80
22828;BMP180;11580;52.562;13.418;2023-10-08T12:34:13;101674.00;;;19.80
22828;BMP180;11580;52.562;13.418;2023-10-08T12:36:40;101674.00;;;19.80
22828;BMP180;11580;52.562;13.418;2023-10-08T12:39:08;101671.00;;;19.80
22828;BMP180;11580;52.562;13.418;2023-10-08T12:41:42;101678.00;;;19.80
22828;BMP180;11580;52.562;13.418;2023-10-08T12:44:10;101674.00;;;19.80
22828;BMP180;11580;52.562;13.418;2023-10-08T12:46:37;101668.00;;;19.80
22828;BMP180;11580;52.562;13.418;2023-10-08T12:49:05;101673.00;;;19.70
22828;BMP180;11580;52.562;13.418;2023-10-08T12:51:32;101682.00;;;19.60
22828;BMP180;11580;52.562;13.418;2023-10-08T12:54:01;101674.00;;;19.60
22828;BMP180;11580;52.562;13.418;2023-10-08T12:56:33;101669.00;;;19.60
22828;BMP180;11580;52.562;13.418;2023-10-08T12:59:07;101658.00;;;19.60
22828;BMP180;11580;52.562;13.418;2023-10-08T13:01:34;101665.00;;;19.60
22828;BMP180;11580;52.562;13.418;2023-10-08T13:04:03;101668.00;;;19.70
22828;BMP180;11580;52.562;13.418;2023-10-08T13:06:34;101669.00;;;19.80
22828;BMP180;11580;52.562;13.418;2023-10-08T13:09:04;101650.00;;;19.80
22828;BMP180;11580;52.562;13.418;2023-10-08T13:11:38;101645.00;;;19.80
22828;BMP180;11580;52.562;13.418;2023-10-08T13:14:07;101666.00;;;19.80
22828;BMP180;11580;52.562;13.418;2023-10-08T13:16:34;101664.00;;;19.80
22828;BMP180;11580;52.562;13.418;2023-10-08T13:19:04;101667.00;;;19.70
22828;BMP180;11580;52.562;13.418;2023-10-08T13:21:34;101671.00;;;19.60
22828;BMP180;11580;52.562;13.418;2023-10-08T13:24:03;101660.00;;;19.50
22828;BMP180;11580;52.562;13.418;2023-10-08T13:26:35;101663.00;;;19.40
22828;BMP180;11580;52.562;13.418;2023-10-08T13:29:04;101666.00;;;19.40
22828;BMP180;11580;52.562;13.418;2023-10-08T13:31:36;101673.00;;;19.30
22828;BMP180;11580;52.562;13.418;2023-10-08T13:34:03;101673.00;;;19.30
22828;BMP180;11580;52.562;13.418;2023-10-08T13:36:34;101665.00;;;19.10
22828;BMP180;11580;52.562;13.418;2023-10-08T13:39:04;101664.00;;;19.20
22828;BMP180;11580;52.562;13.418;2023-10-08T13:41:36;101666.00;;;19.10
22828;BMP180;11580;52.562;13.418;2023-10-08T13:44:05;101658.00;;;19.00
22828;BMP180;11580;52.562;13.418;2023-10-08T13:46:32;101660.00;;;18.90
22828;BMP180;11580;52.562;13.418;2023-10-08T13:49:03;101664.00;;;18.90
22828;BMP180;11580;52.562;13.418;2023-10-08T13:51:32;101666.00;;;18.80
22828;BMP180;11580;52.562;13.418;2023-10-08T13:54:01;101683.00;;;18.70
22828;BMP180;11580;52.562;13.418;2023-10-08T13:56:32;101680.00;;;18.60
22828;BMP180;11580;52.562;13.418;2023-10-08T13:59:04;101662.00;;;18.50
22828;BMP180;11580;52.562;13.418;2023-10-08T14:01:39;101678.00;;;18.50
22828;BMP180;11580;52.562;13.418;2023-10-08T14:04:13;101686.00;;;18.40
22828;BMP180;11580;52.562;13.418;2023-10-08T14:06:43;101687.00;;;18.40
22828;BMP180;11580;52.562;13.418;2023-10-08T14:09:14;101670.00;;;18.40
22828;BMP180;11580;52.562;13.418;2023-10-08T14:11:47;101669.00;;;18.40
22828;BMP180;11580;52.562;13.418;2023-10-08T14:14:16;101641.00;;;18.40